createdAt,value
2022-11-07T00:00:35.578Z,11.20
2022-11-07T00:03:12.013Z,11.20
2022-11-07T00:05:49.454Z,11.30
2022-11-07T00:08:32.176Z,11.30
2022-11-07T00:11:09.392Z,11.30
2022-11-07T00:13:46.169Z,11.30
2022-11-07T00:16:22.022Z,11.30
2022-11-07T00:18:58.166Z,11.30
2022-11-07T00:21:36.655Z,11.32
2022-11-07T00:24:17.756Z,11.40
2022-11-07T00:26:55.519Z,11.40
2022-11-07T00:29:31.602Z,11.40
2022-11-07T00:32:09.996Z,11.46
2022-11-07T00:34:46.613Z,11.50
2022-11-07T00:37:23.362Z,11.50
2022-11-07T00:39:59.888Z,11.50
2022-11-07T00:42:36.433Z,11.50
2022-11-07T00:45:17.074Z,11.40
2022-11-07T00:47:56.153Z,11.30
2022-11-07T00:50:33.145Z,11.18
2022-11-07T00:53:09.668Z,11.00
2022-11-07T00:55:46.190Z,10.90
2022-11-07T00:58:23.590Z,10.90
2022-11-07T01:00:59.769Z,10.80
2022-11-07T01:03:53.006Z,10.80
2022-11-07T01:06:31.365Z,10.80
2022-11-07T01:09:07.520Z,10.80
2022-11-07T01:11:45.075Z,10.70
2022-11-07T01:14:23.329Z,10.70
2022-11-07T01:17:00.286Z,10.70
2022-11-07T01:19:36.725Z,10.70
2022-11-07T01:22:13.705Z,10.70
2022-11-07T01:24:51.639Z,10.60
2022-11-07T01:27:27.785Z,10.60
2022-11-07T01:30:05.173Z,10.50
2022-11-07T01:32:42.120Z,10.48
2022-11-07T01:35:19.776Z,10.40
2022-11-07T01:37:56.732Z,10.40
2022-11-07T01:40:34.182Z,10.48
2022-11-07T01:43:11.832Z,10.50
2022-11-07T01:45:48.684Z,10.50
2022-11-07T01:48:26.059Z,10.50
2022-11-07T01:51:02.458Z,10.50
2022-11-07T01:53:40.372Z,10.50
2022-11-07T01:56:21.729Z,10.48
2022-11-07T01:58:59.004Z,10.40
2022-11-07T02:01:35.558Z,10.40
2022-11-07T02:04:15.612Z,10.46
2022-11-07T02:06:58.232Z,10.38
2022-11-07T02:09:34.941Z,10.22
2022-11-07T02:12:13.317Z,10.20
2022-11-07T02:14:50.960Z,10.18
2022-11-07T02:17:27.595Z,10.20
2022-11-07T02:20:03.723Z,10.10
2022-11-07T02:22:51.391Z,10.10
2022-11-07T02:25:29.031Z,10.10
2022-11-07T02:28:09.634Z,10.10
2022-11-07T02:30:47.137Z,10.10
2022-11-07T02:33:27.746Z,10.10
2022-11-07T02:36:05.088Z,10.10
2022-11-07T02:38:43.858Z,10.10
2022-11-07T02:41:26.856Z,10.10
2022-11-07T02:44:08.931Z,10.20
2022-11-07T02:46:45.520Z,10.20
2022-11-07T02:49:22.052Z,10.10
2022-11-07T02:51:58.933Z,10.10
2022-11-07T02:54:35.279Z,10.10
2022-11-07T02:57:12.475Z,10.10
2022-11-07T02:59:49.585Z,10.10
2022-11-07T03:02:26.543Z,10.10
2022-11-07T03:05:03.380Z,10.00
2022-11-07T03:07:39.279Z,10.04
2022-11-07T03:10:19.134Z,10.00
2022-11-07T03:12:54.677Z,10.00
2022-11-07T03:15:31.876Z,9.96
2022-11-07T03:18:08.981Z,9.90
2022-11-07T03:20:45.255Z,9.90
2022-11-07T03:23:22.266Z,9.80
2022-11-07T03:25:58.747Z,9.80
2022-11-07T03:28:36.347Z,9.80
2022-11-07T03:31:13.000Z,9.70
2022-11-07T03:33:49.214Z,9.70
2022-11-07T03:36:25.580Z,9.70
2022-11-07T03:39:02.136Z,9.60
2022-11-07T03:41:38.747Z,9.50
2022-11-07T03:44:16.026Z,9.50
2022-11-07T03:46:52.447Z,9.44
2022-11-07T03:49:29.301Z,9.40
2022-11-07T03:52:05.938Z,9.40
2022-11-07T03:54:43.135Z,9.30
2022-11-07T03:57:19.694Z,9.20
2022-11-07T03:59:55.842Z,9.20
2022-11-07T04:02:33.426Z,9.20
2022-11-07T04:05:12.278Z,9.20
2022-11-07T04:07:48.503Z,9.20
2022-11-07T04:10:25.234Z,9.24
2022-11-07T04:13:18.484Z,9.28
2022-11-07T04:16:25.028Z,9.20
2022-11-07T04:19:01.837Z,9.20
2022-11-07T04:21:38.500Z,9.10
2022-11-07T04:24:15.774Z,9.10
2022-11-07T04:27:09.973Z,9.10
2022-11-07T04:29:47.325Z,9.10
2022-11-07T04:32:24.266Z,9.00
2022-11-07T04:35:03.331Z,9.00
2022-11-07T04:37:39.676Z,9.00
2022-11-07T04:40:18.945Z,9.00
2022-11-07T04:42:55.086Z,9.00
2022-11-07T04:45:31.068Z,9.00
2022-11-07T04:48:08.793Z,9.00
2022-11-07T04:50:44.953Z,9.00
2022-11-07T04:53:22.810Z,9.00
2022-11-07T04:55:59.656Z,8.90
2022-11-07T04:58:36.797Z,8.90
2022-11-07T05:01:13.500Z,8.80
2022-11-07T05:03:50.086Z,8.80
2022-11-07T05:06:27.193Z,8.80
2022-11-07T05:09:04.092Z,8.80
2022-11-07T05:11:40.175Z,8.80
2022-11-07T05:14:17.735Z,8.80
2022-11-07T05:16:57.020Z,8.90
2022-11-07T05:19:34.400Z,8.90
2022-11-07T05:22:26.724Z,8.90
2022-11-07T05:25:02.701Z,8.90
2022-11-07T05:27:39.540Z,8.90
2022-11-07T05:30:19.237Z,8.84
2022-11-07T05:32:56.782Z,8.80
2022-11-07T05:35:33.597Z,8.82
2022-11-07T05:38:09.633Z,8.80
2022-11-07T05:40:47.145Z,8.80
2022-11-07T05:43:23.884Z,8.80
2022-11-07T05:46:04.414Z,8.70
2022-11-07T05:48:41.465Z,8.62
2022-11-07T05:51:18.841Z,8.66
2022-11-07T05:53:54.852Z,8.60
2022-11-07T05:56:31.664Z,8.64
2022-11-07T05:59:09.452Z,8.70
2022-11-07T06:01:51.182Z,8.68
2022-11-07T06:04:28.636Z,8.70
2022-11-07T06:07:05.078Z,8.70
2022-11-07T06:09:41.275Z,8.70
2022-11-07T06:12:17.699Z,8.64
2022-11-07T06:14:54.999Z,8.60
2022-11-07T06:17:32.080Z,8.60
2022-11-07T06:20:11.764Z,8.60
2022-11-07T06:22:48.074Z,8.70
2022-11-07T06:25:24.639Z,8.70
2022-11-07T06:28:03.609Z,8.70
2022-11-07T06:30:38.685Z,8.80
2022-11-07T06:33:19.834Z,8.80
2022-11-07T06:35:56.986Z,8.80
2022-11-07T06:38:33.647Z,8.90
2022-11-07T06:41:15.480Z,8.90
2022-11-07T06:43:52.726Z,8.92
2022-11-07T06:46:29.832Z,8.90
2022-11-07T06:49:06.336Z,9.00
2022-11-07T06:51:47.884Z,9.08
2022-11-07T06:54:25.753Z,9.02
2022-11-07T06:57:02.065Z,9.10
2022-11-07T06:59:39.167Z,9.20
2022-11-07T07:02:30.801Z,9.20
2022-11-07T07:05:21.033Z,9.30
2022-11-07T07:07:59.109Z,9.30
2022-11-07T07:10:37.675Z,9.40
2022-11-07T07:13:14.196Z,9.50
2022-11-07T07:15:57.598Z,9.60
2022-11-07T07:18:34.945Z,9.70
2022-11-07T07:21:13.657Z,9.80
2022-11-07T07:23:50.023Z,9.90
2022-11-07T07:26:27.587Z,10.00
2022-11-07T07:29:03.826Z,10.02
2022-11-07T07:31:40.247Z,10.10
2022-11-07T07:34:17.538Z,10.20
2022-11-07T07:36:54.931Z,10.20
2022-11-07T07:39:31.238Z,10.30
2022-11-07T07:42:07.799Z,10.30
2022-11-07T07:44:45.511Z,10.40
2022-11-07T07:47:21.603Z,10.50
2022-11-07T07:49:58.072Z,10.60
2022-11-07T07:52:34.640Z,10.60
2022-11-07T07:55:14.029Z,10.70
2022-11-07T07:57:51.597Z,10.80
2022-11-07T08:00:29.067Z,10.80
2022-11-07T08:03:10.387Z,10.78
2022-11-07T08:05:46.964Z,10.80
2022-11-07T08:08:23.787Z,10.82
2022-11-07T08:11:06.828Z,11.00
2022-11-07T08:13:43.337Z,11.10
2022-11-07T08:16:19.416Z,11.20
2022-11-07T08:18:56.563Z,11.34
2022-11-07T08:21:33.004Z,11.50
2022-11-07T08:24:11.283Z,11.60
2022-11-07T08:26:48.005Z,11.70
2022-11-07T08:29:24.721Z,11.80
2022-11-07T08:32:05.608Z,11.90
2022-11-07T08:34:43.050Z,12.00
2022-11-07T08:37:19.596Z,12.14
2022-11-07T08:39:56.250Z,12.24
2022-11-07T08:42:33.472Z,12.40
2022-11-07T08:45:14.148Z,12.46
2022-11-07T08:47:51.397Z,12.56
2022-11-07T08:50:29.208Z,12.64
2022-11-07T08:53:06.662Z,12.72
2022-11-07T08:55:43.319Z,12.80
2022-11-07T08:58:18.747Z,12.90
2022-11-07T09:00:55.307Z,13.00
2022-11-07T09:03:46.148Z,13.10
2022-11-07T09:06:23.814Z,13.20
2022-11-07T09:08:59.739Z,13.30
2022-11-07T09:11:36.158Z,13.30
2022-11-07T09:14:12.431Z,13.40
2022-11-07T09:16:49.508Z,13.50
2022-11-07T09:19:25.871Z,13.60
2022-11-07T09:22:02.050Z,13.66
2022-11-07T09:24:37.953Z,13.70
2022-11-07T09:27:15.635Z,13.80
2022-11-07T09:29:52.733Z,13.90
2022-11-07T09:32:44.498Z,13.94
2022-11-07T09:35:22.417Z,14.00
2022-11-07T09:37:58.852Z,14.10
2022-11-07T09:40:47.965Z,14.20
2022-11-07T09:43:55.472Z,14.30
2022-11-07T09:46:45.863Z,14.40
2022-11-07T09:49:31.575Z,14.40
2022-11-07T09:52:21.728Z,14.50
2022-11-07T09:55:02.956Z,14.60
2022-11-07T09:57:42.707Z,14.70
2022-11-07T10:00:26.202Z,14.72
2022-11-07T10:03:04.341Z,14.80
2022-11-07T10:05:57.203Z,14.90
2022-11-07T10:08:43.762Z,14.90
2022-11-07T10:11:33.659Z,15.00
2022-11-07T10:14:25.768Z,15.06
2022-11-07T10:17:27.387Z,15.10
2022-11-07T10:20:33.128Z,15.10
2022-11-07T10:23:34.826Z,15.20
2022-11-07T10:26:17.015Z,15.22
2022-11-07T10:29:01.213Z,15.30
2022-11-07T10:31:45.370Z,15.40
2022-11-07T10:34:31.834Z,15.42
2022-11-07T10:37:09.077Z,15.50
2022-11-07T10:39:46.137Z,15.50
2022-11-07T10:42:28.164Z,15.60
2022-11-07T10:45:06.670Z,15.60
2022-11-07T10:47:43.725Z,15.70
2022-11-07T10:50:28.072Z,15.72
2022-11-07T10:53:09.852Z,15.80
2022-11-07T10:55:55.271Z,15.90
2022-11-07T10:58:38.201Z,15.90
2022-11-07T11:01:17.170Z,16.00
2022-11-07T11:03:53.790Z,16.00
2022-11-07T11:06:33.170Z,16.08
2022-11-07T11:09:22.221Z,16.10
2022-11-07T11:11:59.345Z,16.02
2022-11-07T11:14:35.543Z,16.00
2022-11-07T11:17:27.943Z,15.90
2022-11-07T11:20:04.835Z,15.96
2022-11-07T11:22:47.521Z,16.00
2022-11-07T11:25:26.136Z,15.98
2022-11-07T11:28:08.929Z,16.00
2022-11-07T11:30:47.455Z,16.00
2022-11-07T11:33:28.518Z,16.00
2022-11-07T11:36:12.313Z,16.06
2022-11-07T11:38:54.725Z,16.00
2022-11-07T11:41:41.090Z,16.10
2022-11-07T11:44:23.655Z,16.10
2022-11-07T11:47:11.566Z,16.12
2022-11-07T11:49:52.812Z,16.20
2022-11-07T11:52:31.863Z,16.20
2022-11-07T11:55:17.626Z,16.30
2022-11-07T11:58:09.251Z,16.30
2022-11-07T12:00:55.857Z,16.38
2022-11-07T12:04:10.785Z,16.40
2022-11-07T12:06:51.497Z,16.40
2022-11-07T12:09:46.888Z,16.50
2022-11-07T12:12:45.676Z,16.50
2022-11-07T12:15:43.463Z,16.60
2022-11-07T12:18:34.072Z,16.60
2022-11-07T12:21:25.113Z,16.70
2022-11-07T12:24:22.098Z,16.70
2022-11-07T12:27:12.254Z,16.76
2022-11-07T12:30:18.144Z,16.80
2022-11-07T12:33:15.270Z,16.80
2022-11-07T12:35:59.740Z,16.80
2022-11-07T12:39:06.057Z,16.90
2022-11-07T12:41:57.543Z,16.90
2022-11-07T12:44:57.961Z,16.90
2022-11-07T12:48:06.258Z,17.00
2022-11-07T12:50:59.195Z,17.00
2022-11-07T12:53:52.613Z,17.04
2022-11-07T12:56:37.921Z,17.10
2022-11-07T12:59:23.811Z,17.10
2022-11-07T13:02:17.493Z,17.10
2022-11-07T13:05:02.841Z,17.10
2022-11-07T13:07:49.136Z,17.10
2022-11-07T13:10:36.069Z,17.10
2022-11-07T13:13:20.789Z,17.14
2022-11-07T13:18:54.030Z,17.20
2022-11-07T13:21:31.022Z,17.22
2022-11-07T13:24:23.655Z,17.30
2022-11-07T13:26:59.144Z,17.30
2022-11-07T13:29:42.572Z,17.30
2022-11-07T13:32:21.114Z,17.20
2022-11-07T13:35:03.021Z,17.20
2022-11-07T13:37:43.521Z,17.20
2022-11-07T13:40:35.878Z,17.10
2022-11-07T13:43:20.978Z,17.10
2022-11-07T13:46:00.672Z,17.10
2022-11-07T13:48:49.774Z,17.10
2022-11-07T13:51:33.216Z,17.20
2022-11-07T13:54:27.168Z,17.20
2022-11-07T13:57:09.457Z,17.20
2022-11-07T13:59:54.292Z,17.20
2022-11-07T14:02:33.144Z,17.20
2022-11-07T14:05:17.223Z,17.30
2022-11-07T14:08:04.060Z,17.30
2022-11-07T14:10:47.417Z,17.20
2022-11-07T14:13:36.952Z,17.20
2022-11-07T14:16:27.653Z,17.18
2022-11-07T14:19:06.957Z,17.14
2022-11-07T14:21:47.563Z,17.10
2022-11-07T14:24:33.347Z,17.10
2022-11-07T14:27:15.379Z,17.00
2022-11-07T14:30:01.411Z,16.94
2022-11-07T14:32:41.094Z,16.90
2022-11-07T14:35:23.977Z,16.80
2022-11-07T14:38:00.686Z,16.80
2022-11-07T14:40:38.019Z,16.80
2022-11-07T14:43:17.930Z,16.80
2022-11-07T14:46:11.756Z,16.78
2022-11-07T14:48:51.729Z,16.70
2022-11-07T14:51:30.902Z,16.70
2022-11-07T14:54:13.178Z,16.70
2022-11-07T14:56:55.088Z,16.70
2022-11-07T14:59:36.169Z,16.70
2022-11-07T15:02:35.335Z,16.62
2022-11-07T15:05:27.754Z,16.60
2022-11-07T15:08:05.074Z,16.56
2022-11-07T15:10:44.137Z,16.50
2022-11-07T15:13:33.151Z,16.50
2022-11-07T15:16:20.542Z,16.40
2022-11-07T15:19:06.320Z,16.40
2022-11-07T15:21:55.084Z,16.40
2022-11-07T15:24:45.263Z,16.30
2022-11-07T15:27:36.535Z,16.20
2022-11-07T15:30:29.057Z,16.10
2022-11-07T15:33:06.988Z,15.92
2022-11-07T15:35:45.092Z,15.80
2022-11-07T15:38:25.945Z,15.70
2022-11-07T15:41:02.771Z,15.60
2022-11-07T15:43:39.440Z,15.50
2022-11-07T15:46:33.820Z,15.36
2022-11-07T15:49:12.975Z,15.20
2022-11-07T15:51:50.246Z,15.00
2022-11-07T15:54:26.021Z,14.92
2022-11-07T15:57:07.724Z,14.90
2022-11-07T15:59:44.355Z,14.80
2022-11-07T16:02:22.737Z,14.70
2022-11-07T16:04:59.081Z,14.66
2022-11-07T16:07:35.587Z,14.60
2022-11-07T16:10:25.521Z,14.50
2022-11-07T16:13:05.004Z,14.50
2022-11-07T16:15:42.926Z,14.40
2022-11-07T16:18:24.058Z,14.30
2022-11-07T16:21:00.960Z,14.20
2022-11-07T16:23:36.956Z,14.12
2022-11-07T16:26:16.730Z,14.00
2022-11-07T16:28:53.862Z,13.90
2022-11-07T16:31:30.375Z,13.80
2022-11-07T16:34:06.861Z,13.80
2022-11-07T16:36:44.365Z,13.70
2022-11-07T16:39:25.592Z,13.70
2022-11-07T16:42:01.957Z,13.62
2022-11-07T16:44:38.752Z,13.60
2022-11-07T16:47:19.555Z,13.50
2022-11-07T16:49:56.261Z,13.46
2022-11-07T16:52:32.378Z,13.40
2022-11-07T16:55:13.556Z,13.40
2022-11-07T16:57:50.009Z,13.30
2022-11-07T17:00:28.503Z,13.24
2022-11-07T17:03:05.561Z,13.20
2022-11-07T17:05:42.212Z,13.20
2022-11-07T17:08:28.920Z,13.10
2022-11-07T17:11:05.681Z,13.10
2022-11-07T17:13:42.455Z,13.10
2022-11-07T17:16:24.285Z,13.10
2022-11-07T17:19:01.780Z,13.10
2022-11-07T17:21:43.928Z,13.10
2022-11-07T17:24:20.285Z,13.00
2022-11-07T17:26:57.197Z,13.00
2022-11-07T17:29:33.548Z,13.00
2022-11-07T17:32:11.227Z,12.94
2022-11-07T17:35:10.673Z,12.90
2022-11-07T17:37:47.392Z,12.80
2022-11-07T17:40:29.586Z,12.70
2022-11-07T17:43:06.432Z,12.70
2022-11-07T17:45:45.525Z,12.60
2022-11-07T17:48:22.577Z,12.60
2022-11-07T17:50:58.966Z,12.60
2022-11-07T17:53:35.131Z,12.50
2022-11-07T17:56:15.371Z,12.50
2022-11-07T17:58:55.816Z,12.46
2022-11-07T18:01:33.575Z,12.40
2022-11-07T18:04:11.198Z,12.40
2022-11-07T18:06:48.426Z,12.40
2022-11-07T18:09:24.604Z,12.50
2022-11-07T18:12:01.560Z,12.50
2022-11-07T18:14:37.483Z,12.60
2022-11-07T18:17:13.187Z,12.60
2022-11-07T18:19:51.026Z,12.60
2022-11-07T18:22:28.086Z,12.60
2022-11-07T18:25:04.380Z,12.50
2022-11-07T18:27:41.073Z,12.50
2022-11-07T18:30:22.301Z,12.42
2022-11-07T18:32:58.694Z,12.40
2022-11-07T18:35:35.358Z,12.40
2022-11-07T18:38:13.050Z,12.34
2022-11-07T18:40:59.887Z,12.30
2022-11-07T18:43:36.463Z,12.30
2022-11-07T18:46:16.997Z,12.30
2022-11-07T18:48:54.164Z,12.24
2022-11-07T18:51:31.796Z,12.20
2022-11-07T18:54:09.755Z,12.10
2022-11-07T18:56:48.157Z,12.10
2022-11-07T18:59:24.784Z,12.10
2022-11-07T19:02:02.522Z,12.10
2022-11-07T19:04:38.538Z,12.02
2022-11-07T19:07:15.111Z,12.00
2022-11-07T19:09:51.642Z,12.00
2022-11-07T19:12:31.276Z,12.00
2022-11-07T19:15:08.386Z,12.00
2022-11-07T19:17:44.766Z,12.08
2022-11-07T19:20:22.148Z,12.10
2022-11-07T19:22:58.433Z,12.10
2022-11-07T19:25:34.537Z,12.14
2022-11-07T19:28:12.365Z,12.20
2022-11-07T19:30:49.502Z,12.20
2022-11-07T19:33:26.619Z,12.16
2022-11-07T19:36:08.990Z,12.10
2022-11-07T19:38:46.031Z,12.10
2022-11-07T19:41:23.125Z,12.10
2022-11-07T19:44:04.400Z,12.06
2022-11-07T19:46:40.638Z,12.00
2022-11-07T19:49:18.526Z,12.00
2022-11-07T19:51:57.078Z,12.00
2022-11-07T19:54:33.252Z,12.00
2022-11-07T19:57:10.439Z,11.90
2022-11-07T19:59:47.234Z,11.90
2022-11-07T20:02:32.881Z,11.90
2022-11-07T20:05:14.073Z,11.80
2022-11-07T20:07:54.156Z,11.80
2022-11-07T20:10:32.356Z,11.72
2022-11-07T20:13:09.846Z,11.70
2022-11-07T20:15:49.052Z,11.70
2022-11-07T20:18:26.176Z,11.60
2022-11-07T20:21:11.067Z,11.60
2022-11-07T20:23:48.804Z,11.58
2022-11-07T20:26:27.838Z,11.50
2022-11-07T20:29:05.250Z,11.50
2022-11-07T20:31:45.510Z,11.50
2022-11-07T20:34:23.446Z,11.44
2022-11-07T20:37:01.626Z,11.40
2022-11-07T20:39:38.231Z,11.40
2022-11-07T20:42:14.727Z,11.50
2022-11-07T20:44:51.431Z,11.50
2022-11-07T20:47:27.960Z,11.50
2022-11-07T20:50:05.261Z,11.46
2022-11-07T20:52:41.985Z,11.44
2022-11-07T20:55:19.189Z,11.40
2022-11-07T20:57:55.856Z,11.40
2022-11-07T21:00:32.161Z,11.40
2022-11-07T21:03:08.233Z,11.34
2022-11-07T21:05:45.119Z,11.30
2022-11-07T21:08:21.291Z,11.30
2022-11-07T21:10:59.417Z,11.30
2022-11-07T21:13:36.663Z,11.30
2022-11-07T21:16:14.899Z,11.22
2022-11-07T21:18:50.742Z,11.20
2022-11-07T21:21:30.165Z,11.20
2022-11-07T21:24:07.157Z,11.20
2022-11-07T21:26:44.737Z,11.20
2022-11-07T21:29:23.976Z,11.20
2022-11-07T21:32:06.841Z,11.20
2022-11-07T21:34:43.009Z,11.20
2022-11-07T21:37:19.968Z,11.20
2022-11-07T21:39:57.345Z,11.20
2022-11-07T21:42:37.216Z,11.20
2022-11-07T21:45:17.795Z,11.20
2022-11-07T21:47:53.706Z,11.20
2022-11-07T21:50:44.299Z,11.20
2022-11-07T21:53:21.053Z,11.20
2022-11-07T21:55:57.239Z,11.20
2022-11-07T21:58:35.010Z,11.20
2022-11-07T22:01:12.251Z,11.20
2022-11-07T22:04:06.210Z,11.20
2022-11-07T22:06:45.455Z,11.20
2022-11-07T22:09:23.025Z,11.18
2022-11-07T22:11:59.282Z,11.10
2022-11-07T22:14:35.275Z,11.10
2022-11-07T22:17:11.302Z,11.10
2022-11-07T22:19:50.669Z,11.10
2022-11-07T22:22:27.370Z,11.10
2022-11-07T22:25:03.620Z,11.10
2022-11-07T22:27:41.045Z,11.02
2022-11-07T22:30:21.394Z,11.00
2022-11-07T22:32:59.479Z,11.00
2022-11-07T22:35:37.187Z,10.90
2022-11-07T22:38:14.403Z,10.90
2022-11-07T22:40:54.378Z,10.90
2022-11-07T22:43:31.027Z,10.90
2022-11-07T22:46:11.112Z,10.90
2022-11-07T22:48:48.942Z,10.90
2022-11-07T22:51:27.726Z,10.90
2022-11-07T22:54:09.153Z,10.90
2022-11-07T22:56:45.733Z,10.90
2022-11-07T22:59:22.583Z,10.90
2022-11-07T23:01:58.896Z,10.90
2022-11-07T23:04:36.325Z,10.90
2022-11-07T23:07:12.802Z,10.90
2022-11-07T23:09:48.512Z,10.90
2022-11-07T23:12:25.831Z,10.92
2022-11-07T23:15:03.943Z,11.00
2022-11-07T23:17:42.611Z,10.98
2022-11-07T23:20:33.393Z,10.98
2022-11-07T23:23:09.613Z,11.00
2022-11-07T23:25:45.220Z,11.00
2022-11-07T23:28:22.243Z,11.00
2022-11-07T23:30:59.624Z,11.00
2022-11-07T23:33:37.150Z,11.00
2022-11-07T23:36:18.698Z,11.00
2022-11-07T23:38:54.881Z,11.00
2022-11-07T23:41:31.758Z,11.02
2022-11-07T23:44:08.197Z,11.00
2022-11-07T23:47:01.235Z,11.00
2022-11-07T23:49:54.085Z,10.92
2022-11-07T23:52:31.558Z,11.00
2022-11-07T23:55:25.058Z,10.90
2022-11-07T23:58:18.178Z,10.90
